Time;durP1;ratioP1;P1;durP2;ratioP2;P2;SDS_P1;SDS_P2;PMS_P1;PMS_P2;Temp;Humidity;BMP_temperature;BMP_pressure;BME280_temperature;BME280_humidity;BME280_pressure;Samples;Min_cycle;Max_cycle;Signal;HPM_P1;HPM_P2
2023/03/27 00:00:55;;;;;;;44.00;42.10;;;;;;;5.74;90.28;96952.53;5018425;28;20128;-78
2023/03/27 00:03:22;;;;;;;44.72;42.60;;;;;;;5.58;90.67;96948.78;5015218;28;20025;-78
2023/03/27 00:05:47;;;;;;;45.13;43.22;;;;;;;5.79;90.19;96952.59;5011424;28;20044;-77
2023/03/27 00:08:13;;;;;;;45.85;43.65;;;;;;;5.67;90.13;96959.88;5016562;28;20029;-78
2023/03/27 00:10:39;;;;;;;44.22;42.33;;;;;;;5.63;90.31;96966.75;5022834;28;20034;-77
2023/03/27 00:13:06;;;;;;;45.58;43.60;;;;;;;5.57;90.24;96957.88;5000008;28;20108;-78
2023/03/27 00:15:32;;;;;;;44.47;42.58;;;;;;;5.49;90.20;96967.06;5009585;28;20043;-76
2023/03/27 00:18:02;;;;;;;45.10;43.10;;;;;;;5.57;89.60;96972.03;5021931;28;20071;-76
2023/03/27 00:20:30;;;;;;;42.75;40.85;;;;;;;5.49;90.16;96980.44;4999385;28;20060;-76
2023/03/27 00:22:59;;;;;;;44.72;42.72;;;;;;;5.60;89.56;96982.19;5014838;28;20060;-76
2023/03/27 00:25:27;;;;;;;45.63;43.63;;;;;;;5.57;90.56;96982.72;5011403;28;20041;-76
2023/03/27 00:27:55;;;;;;;43.60;41.72;;;;;;;5.57;90.25;96982.72;5021659;28;20487;-76
2023/03/27 00:30:21;;;;;;;44.75;42.85;;;;;;;5.55;90.06;96995.47;5005931;28;20484;-77
2023/03/27 00:32:46;;;;;;;45.90;43.90;;;;;;;5.59;89.35;96991.28;5017904;28;20095;-76
2023/03/27 00:35:13;;;;;;;46.35;44.45;;;;;;;5.36;89.48;96991.44;4998640;28;20037;-76
2023/03/27 00:37:39;;;;;;;47.33;45.42;;;;;;;5.35;89.77;97005.00;5012308;28;20021;-77
2023/03/27 00:40:27;;;;;;;46.53;44.47;;;;;;;5.46;89.51;97006.81;5001281;28;20037;-77
2023/03/27 00:42:56;;;;;;;44.60;42.70;;;;;;;5.70;88.85;97002.94;5029384;22;20052;-77
2023/03/27 00:45:28;;;;;;;44.90;43.10;;;;;;;5.62;87.52;97007.88;5034083;28;20041;-77
2023/03/27 00:48:01;;;;;;;47.35;45.45;;;;;;;5.34;87.53;97014.88;5025475;28;20033;-77
2023/03/27 00:50:36;;;;;;;47.13;45.22;;;;;;;5.17;87.47;97019.38;5014752;28;20041;-78
2023/03/27 00:53:05;;;;;;;45.92;44.13;;;;;;;5.14;88.10;97025.19;5007451;28;20041;-77
2023/03/27 00:55:31;;;;;;;45.70;43.88;;;;;;;5.41;87.39;97020.06;5004796;28;20044;-77
2023/03/27 00:58:02;;;;;;;43.97;42.13;;;;;;;5.25;86.51;97026.19;5022388;28;20025;-78
2023/03/27 01:00:28;;;;;;;45.33;43.53;;;;;;;5.13;86.79;97034.25;5016598;28;20076;-78
2023/03/27 01:02:54;;;;;;;43.63;41.83;;;;;;;5.11;86.95;97028.31;5013782;28;20360;-78
2023/03/27 01:05:20;;;;;;;45.28;43.47;;;;;;;5.27;86.62;97034.75;5017941;28;20047;-78
2023/03/27 01:07:47;;;;;;;43.75;42.05;;;;;;;5.36;85.77;97049.34;5020781;28;20112;-78
2023/03/27 01:10:13;;;;;;;44.50;42.70;;;;;;;5.29;85.53;97051.34;5034162;28;20123;-78
2023/03/27 01:12:59;;;;;;;44.55;42.80;;;;;;;5.48;86.37;97058.09;5016684;28;20150;-78
2023/03/27 01:15:41;;;;;;;44.38;42.67;;;;;;;5.16;87.84;97059.66;5007833;28;20041;-79
2023/03/27 01:18:30;;;;;;;47.05;45.15;;;;;;;5.18;88.28;97063.66;5033544;28;20044;-77
2023/03/27 01:21:22;;;;;;;45.00;43.13;;;;;;;5.17;88.98;97062.06;5020845;28;20022;-77
2023/03/27 01:24:39;;;;;;;48.88;46.88;;;;;;;5.06;88.90;97076.25;5038578;28;20037;-78
2023/03/27 01:27:11;;;;;;;52.92;50.72;;;;;;;4.96;87.62;97081.38;5026517;28;20707;-76
2023/03/27 01:29:38;;;;;;;48.30;46.40;;;;;;;4.84;87.88;97093.94;5027300;28;20041;-76
2023/03/27 01:32:55;;;;;;;45.95;44.05;;;;;;;4.83;87.31;97097.66;5011408;28;20106;-77
2023/03/27 01:35:30;;;;;;;47.35;45.47;;;;;;;4.81;86.82;97095.22;4954638;28;20177;-78
2023/03/27 01:38:05;;;;;;;47.08;45.17;;;;;;;4.64;87.25;97093.53;4954137;28;20035;-78
2023/03/27 01:40:49;;;;;;;46.60;44.75;;;;;;;4.56;86.60;97104.53;5015651;28;20037;-79
2023/03/27 01:43:19;;;;;;;46.88;45.08;;;;;;;4.51;86.43;97104.41;5017356;28;20065;-79
2023/03/27 01:46:22;;;;;;;47.42;45.58;;;;;;;4.47;86.44;97108.59;5037148;28;20033;-78
2023/03/27 01:48:57;;;;;;;44.60;42.80;;;;;;;4.48;85.73;97119.00;4966280;28;20514;-78
2023/03/27 01:51:31;;;;;;;42.13;40.50;;;;;;;4.62;85.41;97117.72;4998491;28;20033;-78
2023/03/27 01:54:20;;;;;;;42.80;41.10;;;;;;;4.63;85.52;97121.22;5034556;28;20037;-79
2023/03/27 01:56:52;;;;;;;44.55;42.85;;;;;;;4.67;85.40;97133.84;5018517;28;20048;-79
2023/03/27 01:59:20;;;;;;;44.25;42.45;;;;;;;4.54;86.17;97136.75;5028664;28;20031;-78
2023/03/27 02:01:53;;;;;;;47.90;46.05;;;;;;;4.54;85.61;97144.75;5016678;28;20398;-78
2023/03/27 02:04:29;;;;;;;42.22;40.63;;;;;;;4.27;86.42;97140.09;5034277;28;20468;-79
2023/03/27 02:06:59;;;;;;;40.97;39.35;;;;;;;4.38;84.52;97161.44;5025802;28;20059;-76
2023/03/27 02:09:46;;;;;;;40.47;38.88;;;;;;;4.48;85.04;97168.88;5016744;28;20512;-77
2023/03/27 02:12:20;;;;;;;36.75;35.35;;;;;;;4.18;83.64;97171.59;5023123;28;20086;-77
2023/03/27 02:14:51;;;;;;;38.00;36.50;;;;;;;4.31;84.37;97183.91;5019767;28;20033;-77
2023/03/27 02:17:19;;;;;;;40.17;38.58;;;;;;;4.42;84.79;97183.09;5016933;28;20095;-77
2023/03/27 02:20:13;;;;;;;38.05;36.55;;;;;;;4.33;84.99;97197.81;5019934;28;20491;-77
2023/03/27 02:22:39;;;;;;;40.45;38.85;;;;;;;4.45;85.14;97201.31;5014472;28;20046;-76
2023/03/27 02:25:31;;;;;;;42.53;40.83;;;;;;;4.28;85.78;97211.00;5040951;28;20037;-77
2023/03/27 02:28:15;;;;;;;46.40;44.50;;;;;;;4.46;86.39;97219.72;5026707;28;20033;-77
2023/03/27 02:30:54;;;;;;;46.90;45.00;;;;;;;4.26;86.35;97213.09;4998477;28;20030;-77
2023/03/27 02:33:43;;;;;;;45.42;43.53;;;;;;;4.19;86.10;97224.66;5039721;28;20076;-77
2023/03/27 02:36:23;;;;;;;48.10;46.05;;;;;;;4.20;86.56;97231.59;5027767;28;20052;-77
2023/03/27 02:39:00;;;;;;;45.75;43.83;;;;;;;4.15;85.93;97228.81;5014048;28;20103;-77
2023/03/27 02:41:37;;;;;;;48.08;46.10;;;;;;;4.38;85.36;97245.91;5026873;28;20037;-77
2023/03/27 02:44:09;;;;;;;44.00;42.20;;;;;;;4.08;85.65;97249.41;5023384;28;20372;-77
2023/03/27 02:47:03;;;;;;;44.42;42.47;;;;;;;3.99;86.65;97250.75;5008593;28;20402;-77
2023/03/27 02:49:34;;;;;;;45.50;43.50;;;;;;;4.06;86.40;97259.47;5027724;28;20486;-77
2023/03/27 02:52:02;;;;;;;45.25;43.45;;;;;;;4.08;86.24;97265.38;5013567;28;20036;-77
2023/03/27 02:54:32;;;;;;;44.05;42.05;;;;;;;3.99;86.71;97261.41;5010055;28;20025;-77
2023/03/27 02:57:09;;;;;;;44.03;42.13;;;;;;;3.90;87.74;97278.75;5019003;28;20466;-76
2023/03/27 02:59:55;;;;;;;44.42;42.28;;;;;;;3.94;87.20;97277.28;5032674;28;20043;-76
2023/03/27 03:02:29;;;;;;;43.75;41.63;;;;;;;3.85;88.06;97297.25;4992434;28;20032;-76
2023/03/27 03:05:01;;;;;;;45.08;42.92;;;;;;;3.81;87.30;97274.78;5022913;28;20116;-76
2023/03/27 03:07:33;;;;;;;46.47;44.17;;;;;;;3.80;87.83;97278.50;5025609;28;20395;-77
2023/03/27 03:10:00;;;;;;;49.47;47.17;;;;;;;3.83;86.82;97288.66;5018087;28;20040;-76
2023/03/27 03:12:25;;;;;;;48.03;45.53;;;;;;;3.85;86.83;97305.22;5052937;28;20103;-76
2023/03/27 03:14:53;;;;;;;48.95;46.35;;;;;;;3.77;87.01;97310.06;5016017;28;20036;-78
2023/03/27 03:17:18;;;;;;;50.20;47.50;;;;;;;3.83;86.62;97309.97;5001226;28;20021;-78
2023/03/27 03:19:44;;;;;;;50.30;47.60;;;;;;;3.78;87.47;97320.47;5018434;28;20039;-78
2023/03/27 03:22:10;;;;;;;49.90;47.20;;;;;;;3.97;86.38;97327.41;5054013;28;20021;-77
2023/03/27 03:24:40;;;;;;;51.03;48.15;;;;;;;3.74;87.70;97332.63;5019514;28;20090;-78
2023/03/27 03:27:07;;;;;;;52.50;49.40;;;;;;;3.84;86.51;97343.56;5016496;28;20026;-77
2023/03/27 03:29:43;;;;;;;52.72;49.80;;;;;;;3.86;86.72;97341.50;5017373;28;20018;-77
2023/03/27 03:32:13;;;;;;;46.78;43.83;;;;;;;3.61;87.51;97356.72;5030694;28;20104;-76
2023/03/27 03:34:45;;;;;;;48.55;45.20;;;;;;;3.65;86.42;97359.75;5019441;28;20045;-77
2023/03/27 03:37:12;;;;;;;48.22;45.28;;;;;;;3.80;87.03;97365.53;5032753;28;20487;-76
2023/03/27 03:39:39;;;;;;;48.65;45.75;;;;;;;3.86;87.28;97357.47;5009170;28;20033;-76
2023/03/27 03:42:04;;;;;;;49.25;46.08;;;;;;;3.74;87.06;97364.56;5034127;28;20059;-76
2023/03/27 03:44:30;;;;;;;48.00;44.92;;;;;;;3.74;87.44;97377.06;5021198;28;20052;-77
2023/03/27 03:46:57;;;;;;;49.60;46.35;;;;;;;3.82;87.24;97388.25;5017987;28;20033;-77
2023/03/27 03:49:24;;;;;;;48.28;45.40;;;;;;;3.67;86.70;97395.75;5032337;28;20053;-77
2023/03/27 03:51:50;;;;;;;49.03;45.92;;;;;;;3.72;87.53;97397.75;5031077;28;20103;-77
2023/03/27 03:54:15;;;;;;;51.67;48.47;;;;;;;3.75;88.16;97406.16;5015547;28;20021;-76
2023/03/27 03:56:42;;;;;;;50.28;47.15;;;;;;;3.57;88.69;97410.63;5031341;28;20029;-77
2023/03/27 03:59:08;;;;;;;51.25;48.10;;;;;;;3.57;86.81;97416.75;5026157;28;20035;-76
2023/03/27 04:01:34;;;;;;;50.38;47.15;;;;;;;3.52;87.12;97429.91;4996384;28;20039;-78
2023/03/27 04:04:02;;;;;;;51.60;48.35;;;;;;;3.55;86.57;97440.09;5008521;28;20032;-77
2023/03/27 04:06:46;;;;;;;53.10;50.13;;;;;;;3.62;86.61;97451.50;5021921;28;20174;-78
2023/03/27 04:09:11;;;;;;;49.88;46.88;;;;;;;3.47;86.57;97464.34;5008649;28;20068;-78
2023/03/27 04:11:57;;;;;;;48.50;45.60;;;;;;;3.47;86.17;97480.31;5026111;28;20124;-77
2023/03/27 04:14:39;;;;;;;50.35;47.55;;;;;;;3.65;86.12;97480.38;5034895;28;20037;-77
2023/03/27 04:17:21;;;;;;;47.05;44.40;;;;;;;3.46;86.17;97489.31;5036569;28;20499;-78
2023/03/27 04:19:48;;;;;;;48.45;45.70;;;;;;;3.46;86.16;97505.28;5022737;28;20025;-78
2023/03/27 04:22:16;;;;;;;48.58;45.65;;;;;;;3.54;85.74;97502.38;5023254;28;20103;-78
2023/03/27 04:24:44;;;;;;;51.22;48.33;;;;;;;3.51;85.74;97513.44;5016315;28;20029;-78
2023/03/27 04:27:12;;;;;;;47.58;44.92;;;;;;;3.77;85.07;97518.56;5009558;28;20021;-77
2023/03/27 04:29:46;;;;;;;47.55;44.55;;;;;;;3.98;85.37;97523.50;5031494;28;20108;-78
2023/03/27 04:32:43;;;;;;;43.45;41.33;;;;;;;3.40;83.10;97527.47;5015151;28;20046;-78
2023/03/27 04:35:32;;;;;;;42.47;40.25;;;;;;;3.44;83.68;97539.28;5044621;28;20433;-75
2023/03/27 04:38:13;;;;;;;37.80;35.58;;;;;;;3.29;82.84;97536.13;4996383;28;20409;-76
2023/03/27 04:40:48;;;;;;;39.15;37.15;;;;;;;3.53;84.07;97543.31;5006990;28;20064;-77
2023/03/27 04:43:17;;;;;;;42.22;40.03;;;;;;;3.41;82.94;97553.03;5024380;28;20437;-78
2023/03/27 04:45:46;;;;;;;38.15;36.13;;;;;;;3.49;83.50;97558.09;5035526;28;20044;-78
2023/03/27 04:48:13;;;;;;;42.33;39.88;;;;;;;3.20;83.85;97553.34;4999956;28;20140;-78
2023/03/27 04:50:42;;;;;;;42.17;39.83;;;;;;;3.63;83.58;97586.25;5023433;28;20086;-77
2023/03/27 04:53:10;;;;;;;33.38;31.58;;;;;;;3.40;82.82;97591.31;5018027;28;20039;-76
2023/03/27 04:55:40;;;;;;;40.22;37.63;;;;;;;3.47;83.21;97597.44;5038137;28;20043;-77
2023/03/27 04:58:07;;;;;;;41.88;39.67;;;;;;;3.51;83.95;97609.28;5043385;28;20091;-77
2023/03/27 05:00:35;;;;;;;41.97;39.78;;;;;;;3.56;83.00;97614.78;5013836;28;20450;-77
2023/03/27 05:03:09;;;;;;;42.95;40.90;;;;;;;3.40;83.70;97617.94;5032664;28;20075;-78
2023/03/27 05:05:51;;;;;;;43.97;41.78;;;;;;;3.37;83.89;97623.69;5015715;28;20033;-78
2023/03/27 05:08:18;;;;;;;43.17;40.75;;;;;;;3.42;83.65;97642.50;5023260;28;20040;-77
2023/03/27 05:10:44;;;;;;;38.90;36.83;;;;;;;3.37;82.68;97635.16;5036458;28;20025;-78
2023/03/27 05:13:10;;;;;;;43.08;40.33;;;;;;;3.40;83.03;97661.34;5020923;28;20108;-78
2023/03/27 05:15:37;;;;;;;38.30;35.90;;;;;;;3.19;83.72;97658.16;5023702;28;20106;-78
2023/03/27 05:18:05;;;;;;;40.53;38.22;;;;;;;3.30;82.79;97657.50;5003202;28;20041;-78
2023/03/27 05:20:31;;;;;;;41.50;39.17;;;;;;;3.28;83.68;97659.53;5022744;28;20046;-77
2023/03/27 05:23:03;;;;;;;36.33;33.97;;;;;;;3.22;82.23;97660.41;5012291;28;20029;-77
2023/03/27 05:25:30;;;;;;;35.28;33.15;;;;;;;3.13;81.73;97670.44;5025905;28;20402;-76
2023/03/27 05:27:58;;;;;;;32.28;30.17;;;;;;;3.08;81.63;97674.78;5028340;28;20036;-76
2023/03/27 05:30:28;;;;;;;28.17;26.38;;;;;;;3.03;80.40;97675.41;4995224;28;20043;-75
2023/03/27 05:33:12;;;;;;;24.73;22.83;;;;;;;3.01;79.53;97687.28;5019360;28;20033;-79
2023/03/27 05:35:40;;;;;;;23.05;21.48;;;;;;;2.97;80.86;97686.88;5015823;28;20029;-76
2023/03/27 05:38:07;;;;;;;31.45;29.48;;;;;;;2.91;82.80;97708.16;5025059;28;20029;-76
2023/03/27 05:40:35;;;;;;;40.97;38.38;;;;;;;2.95;83.79;97706.72;5027559;28;20052;-76
2023/03/27 05:43:02;;;;;;;43.28;40.65;;;;;;;2.96;84.12;97721.66;4997958;28;20471;-76
2023/03/27 05:45:30;;;;;;;45.50;42.67;;;;;;;2.93;84.84;97722.06;5012646;28;20029;-76
2023/03/27 05:47:58;;;;;;;45.25;42.22;;;;;;;2.71;85.04;97724.97;5030521;28;20474;-76
2023/03/27 05:50:27;;;;;;;50.28;47.25;;;;;;;2.97;85.22;97733.91;5012586;28;20406;-77
2023/03/27 05:53:02;;;;;;;46.83;43.83;;;;;;;2.76;85.21;97749.09;5023612;28;20033;-77
2023/03/27 05:55:33;;;;;;;47.20;44.08;;;;;;;2.77;84.93;97750.75;5016729;28;20063;-77
2023/03/27 05:57:59;;;;;;;49.78;46.78;;;;;;;2.59;85.21;97755.84;5034273;28;20033;-77
2023/03/27 06:00:25;;;;;;;45.38;42.13;;;;;;;2.47;84.90;97765.47;5020219;28;20032;-77
2023/03/27 06:02:56;;;;;;;43.63;40.53;;;;;;;2.43;85.18;97771.38;5013733;28;20080;-77
2023/03/27 06:05:28;;;;;;;42.85;40.20;;;;;;;2.26;85.21;97768.31;5027723;28;20040;-77
2023/03/27 06:07:57;;;;;;;46.70;43.53;;;;;;;2.29;84.88;97788.34;5010869;28;20033;-77
2023/03/27 06:10:24;;;;;;;40.13;37.42;;;;;;;2.08;84.22;97792.78;5031824;28;20387;-77
2023/03/27 06:13:23;;;;;;;44.80;41.92;;;;;;;2.28;85.11;97800.78;5029182;28;20057;-78
2023/03/27 06:15:56;;;;;;;46.13;43.25;;;;;;;2.09;85.50;97802.38;5030287;28;20037;-77
2023/03/27 06:18:44;;;;;;;46.28;43.08;;;;;;;1.96;85.94;97809.50;5017207;28;20092;-79
2023/03/27 06:21:12;;;;;;;49.55;46.67;;;;;;;2.13;86.19;97810.75;5005424;28;20033;-76
2023/03/27 06:23:38;;;;;;;52.05;48.85;;;;;;;2.10;86.24;97817.28;5026629;28;20450;-73
2023/03/27 06:26:09;;;;;;;50.28;46.60;;;;;;;1.97;86.28;97827.06;5017655;28;20030;-79
2023/03/27 06:28:34;;;;;;;50.42;47.08;;;;;;;2.00;86.05;97831.97;5028555;28;20415;-76
2023/03/27 06:31:00;;;;;;;50.53;47.10;;;;;;;1.97;86.76;97827.06;5050708;28;20072;-77
2023/03/27 06:33:30;;;;;;;52.75;49.28;;;;;;;1.86;85.64;97838.25;5018861;28;20497;-77
2023/03/27 06:36:01;;;;;;;52.15;48.58;;;;;;;1.99;86.00;97856.88;5037400;28;20121;-77
2023/03/27 06:38:33;;;;;;;52.42;49.22;;;;;;;2.00;85.34;97845.25;5039203;28;20033;-77
2023/03/27 06:40:59;;;;;;;50.50;47.38;;;;;;;2.10;84.33;97848.38;5015379;28;20045;-77
2023/03/27 06:43:39;;;;;;;44.15;41.25;;;;;;;2.12;84.65;97846.31;5025209;28;20077;-78
2023/03/27 06:46:12;;;;;;;46.55;43.65;;;;;;;2.07;84.31;97859.38;5026046;28;20044;-78
2023/03/27 06:49:07;;;;;;;47.97;44.78;;;;;;;2.16;84.81;97878.59;5021967;28;20044;-77
2023/03/27 06:51:33;;;;;;;42.97;40.47;;;;;;;2.31;83.19;97877.41;5015455;28;20120;-77
2023/03/27 06:53:58;;;;;;;46.85;44.33;;;;;;;2.37;83.93;97881.94;5031456;28;20104;-77
2023/03/27 06:56:24;;;;;;;39.63;36.92;;;;;;;2.18;81.99;97885.34;5030186;28;20041;-78
2023/03/27 06:59:10;;;;;;;32.42;30.15;;;;;;;2.26;80.99;97890.50;5028187;28;20107;-77
2023/03/27 07:01:36;;;;;;;28.25;26.55;;;;;;;2.40;80.94;97900.16;5014484;28;20036;-77
2023/03/27 07:04:28;;;;;;;27.42;25.60;;;;;;;2.62;80.20;97896.31;5039579;28;20554;-77
2023/03/27 07:07:09;;;;;;;16.40;15.18;;;;;;;2.51;77.04;97904.88;5022180;28;20040;-77
2023/03/27 07:09:38;;;;;;;16.35;14.75;;;;;;;2.64;77.77;97910.22;5029436;28;20033;-77
2023/03/27 07:12:05;;;;;;;11.25;9.77;;;;;;;2.63;75.77;97918.41;5011092;28;20039;-77
2023/03/27 07:14:32;;;;;;;9.10;8.25;;;;;;;2.84;75.29;97915.59;5028311;28;20111;-77
2023/03/27 07:16:58;;;;;;;10.43;9.48;;;;;;;3.07;76.73;97920.50;5024029;28;20078;-77
2023/03/27 07:19:29;;;;;;;5.88;4.50;;;;;;;3.10;71.19;97925.44;5003247;28;20044;-77
2023/03/27 07:22:02;;;;;;;5.93;3.55;;;;;;;3.08;68.78;97949.56;5025970;28;20497;-77
2023/03/27 07:24:30;;;;;;;3.58;2.80;;;;;;;3.12;68.50;97949.97;5051155;28;20482;-77
2023/03/27 07:26:55;;;;;;;7.35;3.05;;;;;;;3.45;67.48;97943.63;5007075;28;20026;-78
2023/03/27 07:29:27;;;;;;;3.88;1.92;;;;;;;3.03;63.62;97961.84;5049786;28;20029;-78
2023/03/27 07:31:54;;;;;;;4.53;2.10;;;;;;;3.28;64.92;97965.53;5030907;28;20037;-77
2023/03/27 07:34:26;;;;;;;3.50;1.83;;;;;;;3.19;64.16;97966.78;5037470;28;20031;-78
2023/03/27 07:37:21;;;;;;;5.10;2.08;;;;;;;3.22;63.90;97971.69;4995521;28;20443;-78
2023/03/27 07:40:07;;;;;;;2.60;1.50;;;;;;;3.13;61.37;97989.66;5024088;28;20135;-78
2023/03/27 07:42:33;;;;;;;4.07;1.90;;;;;;;3.22;61.88;97987.66;5031183;28;20037;-78
2023/03/27 07:45:05;;;;;;;6.57;1.77;;;;;;;3.36;62.18;97990.09;5029647;28;20467;-77
2023/03/27 07:47:31;;;;;;;3.13;1.63;;;;;;;3.43;63.65;98000.78;5019705;28;20052;-78
2023/03/27 07:49:58;;;;;;;7.68;1.90;;;;;;;3.33;60.39;98009.16;5016461;28;20092;-78
2023/03/27 07:52:24;;;;;;;4.88;1.70;;;;;;;3.64;62.80;98008.53;5028923;28;20034;-78
2023/03/27 07:54:56;;;;;;;5.20;2.28;;;;;;;3.67;60.90;98008.13;5001698;28;20371;-78
2023/03/27 07:57:24;;;;;;;4.90;1.73;;;;;;;3.57;61.51;98017.56;5027749;28;20395;-78
2023/03/27 07:59:51;;;;;;;7.20;2.55;;;;;;;3.93;62.95;98018.78;5029567;28;20025;-77
2023/03/27 08:02:23;;;;;;;7.25;2.50;;;;;;;3.89;62.88;98022.06;5024969;28;20029;-78
2023/03/27 08:04:50;;;;;;;6.65;2.75;;;;;;;3.59;63.06;98042.97;5018855;28;20124;-78
2023/03/27 08:07:16;;;;;;;3.33;1.60;;;;;;;3.37;60.37;98039.66;5024242;28;20025;-78
2023/03/27 08:09:42;;;;;;;3.42;1.90;;;;;;;3.12;59.79;98051.91;5034421;28;20406;-77
2023/03/27 08:12:07;;;;;;;5.65;1.88;;;;;;;3.19;60.91;98057.22;5026188;28;20026;-78
2023/03/27 08:14:38;;;;;;;3.95;1.55;;;;;;;3.02;61.55;98054.09;5028528;28;20030;-78
2023/03/27 08:17:19;;;;;;;4.75;1.80;;;;;;;3.21;60.62;98076.47;5015395;28;20086;-77
2023/03/27 08:19:46;;;;;;;6.93;1.95;;;;;;;3.23;60.25;98069.09;5028383;28;20038;-78
2023/03/27 08:22:13;;;;;;;4.90;1.67;;;;;;;3.13;60.78;98068.66;5011170;28;20025;-78
2023/03/27 08:25:06;;;;;;;7.10;2.20;;;;;;;3.01;60.16;98070.28;5038478;28;20056;-77
2023/03/27 08:27:32;;;;;;;3.05;1.63;;;;;;;3.27;58.81;98070.34;5021514;28;20104;-78
2023/03/27 08:29:58;;;;;;;4.47;1.92;;;;;;;3.48;59.82;98078.16;5018530;28;20033;-77
2023/03/27 08:32:24;;;;;;;7.43;2.05;;;;;;;3.81;58.97;98084.34;5032725;28;20032;-77
2023/03/27 08:34:53;;;;;;;6.55;1.90;;;;;;;4.01;60.68;98087.81;5023355;28;20363;-78
2023/03/27 08:37:22;;;;;;;7.60;2.10;;;;;;;4.32;59.45;98086.38;5032719;28;20044;-78
2023/03/27 08:40:18;;;;;;;8.65;4.18;;;;;;;3.70;60.96;98103.59;5011614;28;20044;-79
2023/03/27 08:42:45;;;;;;;7.80;3.42;;;;;;;3.43;60.67;98101.94;5019730;28;20041;-79
2023/03/27 08:45:27;;;;;;;5.95;2.08;;;;;;;3.24;60.49;98105.34;5026018;28;20029;-78
2023/03/27 08:48:10;;;;;;;4.28;1.80;;;;;;;3.40;61.28;98112.97;5011827;28;20053;-79
2023/03/27 08:50:45;;;;;;;6.07;2.25;;;;;;;3.89;60.34;98113.47;5021008;28;20036;-79
2023/03/27 08:53:20;;;;;;;4.97;1.90;;;;;;;3.85;57.88;98117.53;4991733;28;20033;-79
2023/03/27 08:55:46;;;;;;;5.63;2.20;;;;;;;3.92;56.81;98129.00;5009190;28;20123;-79
2023/03/27 08:58:24;;;;;;;8.70;2.45;;;;;;;4.01;58.20;98111.81;5024581;28;20029;-79
2023/03/27 09:01:01;;;;;;;4.63;1.55;;;;;;;3.87;58.15;98131.50;5027031;28;20040;-79
2023/03/27 09:03:35;;;;;;;6.65;3.38;;;;;;;3.79;59.75;98129.00;5014074;28;20033;-79
2023/03/27 09:06:07;;;;;;;5.03;2.30;;;;;;;3.84;59.26;98121.22;5030348;28;20544;-79
2023/03/27 09:08:44;;;;;;;5.38;2.40;;;;;;;4.40;58.36;98136.81;5037098;28;20138;-79
2023/03/27 09:11:23;;;;;;;4.95;1.80;;;;;;;4.05;56.79;98134.38;5023386;28;20033;-78
2023/03/27 09:13:55;;;;;;;4.30;1.80;;;;;;;4.48;55.38;98129.41;5030572;28;20037;-79
2023/03/27 09:16:33;;;;;;;4.10;1.88;;;;;;;4.37;54.56;98143.38;5017734;28;20038;-78
2023/03/27 09:19:37;;;;;;;5.05;2.53;;;;;;;4.00;55.02;98144.81;5010219;28;20514;-79
2023/03/27 09:22:08;;;;;;;6.88;2.00;;;;;;;4.17;57.67;98147.91;5032714;28;20083;-79
2023/03/27 09:24:45;;;;;;;6.70;2.08;;;;;;;3.79;60.17;98155.66;5020868;28;20024;-77
2023/03/27 09:27:40;;;;;;;4.38;2.25;;;;;;;3.64;59.16;98162.97;5026045;28;20037;-78
2023/03/27 09:30:23;;;;;;;6.47;1.70;;;;;;;3.73;57.10;98172.44;5033151;28;20040;-77
2023/03/27 09:33:04;;;;;;;4.10;1.92;;;;;;;4.54;56.07;98157.91;5019532;28;20034;-78
2023/03/27 09:35:31;;;;;;;6.18;1.70;;;;;;;4.54;54.82;98163.25;5033722;28;20491;-77
2023/03/27 09:38:02;;;;;;;4.22;1.77;;;;;;;4.43;55.55;98169.22;5051846;28;20060;-77
2023/03/27 09:40:44;;;;;;;4.82;1.90;;;;;;;4.14;55.08;98162.44;5005225;28;20491;-77
2023/03/27 09:43:18;;;;;;;5.22;1.90;;;;;;;4.07;56.32;98174.94;5018088;28;20097;-77
2023/03/27 09:45:45;;;;;;;5.95;1.63;;;;;;;3.99;55.95;98177.78;5018201;28;20032;-77
2023/03/27 09:48:34;;;;;;;6.85;1.95;;;;;;;3.75;56.97;98191.69;5043053;28;20103;-77
2023/03/27 09:51:01;;;;;;;6.03;1.90;;;;;;;3.71;55.61;98179.00;5004180;28;20497;-77
2023/03/27 09:53:56;;;;;;;6.35;1.98;;;;;;;4.22;56.45;98178.22;5030879;28;20026;-79
2023/03/27 09:56:21;;;;;;;5.75;1.95;;;;;;;4.59;55.13;98186.63;5047052;28;20449;-79
2023/03/27 09:58:50;;;;;;;4.88;1.85;;;;;;;3.99;55.36;98199.09;5032500;28;20025;-77
2023/03/27 10:01:34;;;;;;;3.90;1.50;;;;;;;3.80;54.60;98194.59;5021919;28;20080;-77
2023/03/27 10:04:18;;;;;;;4.60;1.60;;;;;;;3.79;57.14;98187.59;5010684;28;20041;-79
2023/03/27 10:07:04;;;;;;;4.93;2.00;;;;;;;3.87;57.53;98190.09;5024892;28;20078;-80
2023/03/27 10:09:40;;;;;;;3.58;1.85;;;;;;;4.13;57.18;98174.13;5021513;28;20033;-78
2023/03/27 10:12:14;;;;;;;3.75;1.92;;;;;;;4.35;53.99;98181.91;5023807;28;20060;-77
2023/03/27 10:14:42;;;;;;;3.92;1.88;;;;;;;4.54;51.73;98187.25;5021067;28;20669;-78
2023/03/27 10:17:21;;;;;;;4.95;2.53;;;;;;;5.01;50.58;98183.47;5050989;28;20108;-77
2023/03/27 10:19:57;;;;;;;5.80;1.90;;;;;;;4.62;51.80;98181.69;5017792;28;20068;-78
2023/03/27 10:22:28;;;;;;;6.32;2.00;;;;;;;4.27;52.05;98200.78;5028227;28;20479;-77
2023/03/27 10:24:57;;;;;;;3.17;1.40;;;;;;;4.18;52.65;98190.31;5022108;28;20040;-78
2023/03/27 10:27:46;;;;;;;5.72;2.00;;;;;;;4.29;51.89;98210.22;5022768;28;20043;-80
2023/03/27 10:30:36;;;;;;;6.55;2.00;;;;;;;5.30;53.93;98193.66;5033914;28;20040;-78
2023/03/27 10:33:35;;;;;;;7.35;1.90;;;;;;;4.89;53.25;98211.84;5025553;28;20041;-79
2023/03/27 10:36:11;;;;;;;5.47;2.08;;;;;;;4.60;54.03;98197.09;5023706;28;20033;-79
2023/03/27 10:38:38;;;;;;;6.47;2.15;;;;;;;4.50;55.19;98206.53;5036044;28;20029;-77
2023/03/27 10:41:26;;;;;;;6.65;2.50;;;;;;;4.91;55.92;98225.78;5038548;28;20017;-77
2023/03/27 10:43:52;;;;;;;6.05;1.80;;;;;;;4.76;55.07;98203.84;5033610;28;20029;-78
2023/03/27 10:46:20;;;;;;;6.70;2.10;;;;;;;4.53;53.55;98208.78;5034889;28;20021;-78
2023/03/27 10:49:18;;;;;;;3.90;1.88;;;;;;;4.73;53.72;98217.59;5030392;28;20045;-77
2023/03/27 10:51:50;;;;;;;5.93;2.17;;;;;;;4.82;51.33;98211.84;5046776;28;20067;-77
2023/03/27 10:54:34;;;;;;;7.60;3.75;;;;;;;4.83;51.41;98212.69;5032653;28;20065;-79
2023/03/27 10:57:13;;;;;;;3.00;1.88;;;;;;;5.08;51.64;98232.31;5052150;28;20035;-79
2023/03/27 10:59:45;;;;;;;5.95;2.00;;;;;;;5.26;50.76;98216.47;5036064;28;20040;-78
2023/03/27 11:02:30;;;;;;;6.10;2.03;;;;;;;5.31;50.04;98216.66;5047735;28;20083;-79
2023/03/27 11:05:18;;;;;;;3.80;1.75;;;;;;;5.40;50.70;98218.06;5034146;28;20044;-79
2023/03/27 11:07:54;;;;;;;4.30;1.88;;;;;;;5.33;50.02;98229.78;5030884;28;20041;-77
2023/03/27 11:10:40;;;;;;;4.30;1.55;;;;;;;5.19;50.55;98218.34;5037674;28;20116;-77
2023/03/27 11:13:17;;;;;;;4.35;1.60;;;;;;;4.96;49.54;98225.97;5022061;28;20289;-76
2023/03/27 11:15:47;;;;;;;6.03;1.88;;;;;;;4.98;49.26;98231.94;5052734;28;20035;-75
2023/03/27 11:18:36;;;;;;;4.68;1.60;;;;;;;5.11;50.42;98231.09;5025301;28;20055;-77
2023/03/27 11:21:04;;;;;;;8.35;1.95;;;;;;;5.17;49.27;98233.75;5018557;28;20021;-78
2023/03/27 11:23:51;;;;;;;4.22;1.63;;;;;;;5.42;50.52;98229.34;5021988;28;20111;-77
2023/03/27 11:26:32;;;;;;;4.00;1.67;;;;;;;4.89;49.93;98233.19;5024139;28;20564;-75
2023/03/27 11:29:09;;;;;;;3.58;1.92;;;;;;;6.03;52.03;98239.59;5025636;28;20033;-77
2023/03/27 11:31:50;;;;;;;3.42;2.05;;;;;;;5.86;51.60;98230.44;5027464;28;20033;-77
2023/03/27 11:34:51;;;;;;;4.47;1.80;;;;;;;5.96;48.82;98236.13;5006139;28;20421;-79
2023/03/27 11:37:51;;;;;;;2.80;1.48;;;;;;;5.44;50.10;98243.31;5050824;28;20572;-79
2023/03/27 11:40:40;;;;;;;4.28;1.70;;;;;;;4.97;51.10;98248.94;5034969;28;20706;-77
2023/03/27 11:43:08;;;;;;;4.28;1.63;;;;;;;4.79;54.61;98264.78;5011390;28;20032;-79
2023/03/27 11:45:43;;;;;;;6.75;1.90;;;;;;;4.22;55.69;98279.50;5022395;28;20035;-79
2023/03/27 11:48:46;;;;;;;6.10;1.83;;;;;;;4.35;55.73;98281.38;5054287;28;20108;-77
2023/03/27 11:51:22;;;;;;;5.13;2.00;;;;;;;4.60;56.46;98268.25;5028305;28;20033;-79
2023/03/27 11:53:58;;;;;;;;;;;;;;;4.83;55.62;98261.50;5007900;28;20036;-78
2023/03/27 11:56:53;;;;;;;5.63;1.80;;;;;;;4.99;52.73;98265.59;5010906;28;20342;-77
2023/03/27 12:00:05;;;;;;;7.78;2.20;;;;;;;4.94;53.97;98268.06;5021441;28;20403;-77
2023/03/27 12:03:11;;;;;;;6.88;2.03;;;;;;;4.54;55.35;98285.91;5046665;28;20514;-77
2023/03/27 12:06:08;;;;;;;6.63;1.80;;;;;;;4.20;58.88;98292.22;5016358;28;20034;-79